createdAt,value
2022-11-05T15:51:22.596Z,11.40
2022-11-05T15:54:15.763Z,11.40
2022-11-05T15:56:54.105Z,11.40
2022-11-05T15:59:23.475Z,11.40
2022-11-05T16:01:57.782Z,11.40
2022-11-05T16:04:28.448Z,11.50
2022-11-05T16:06:58.461Z,11.40
2022-11-05T16:09:28.643Z,11.40
2022-11-05T16:12:18.137Z,11.40
2022-11-05T16:14:56.222Z,11.40
2022-11-05T16:17:26.561Z,11.40
2022-11-05T16:19:53.916Z,11.40
2022-11-05T16:22:20.695Z,11.40
2022-11-05T16:24:49.232Z,11.40
2022-11-05T16:27:21.317Z,11.40
2022-11-05T16:29:57.571Z,11.30
2022-11-05T16:32:30.553Z,11.40
2022-11-05T16:35:01.078Z,11.30
2022-11-05T16:37:31.493Z,11.30
2022-11-05T16:39:58.224Z,11.30
2022-11-05T16:42:26.128Z,11.30
2022-11-05T16:44:55.307Z,11.30
2022-11-05T16:47:23.044Z,11.30
2022-11-05T16:49:50.545Z,11.20
2022-11-05T16:52:18.085Z,11.20
2022-11-05T16:54:45.070Z,11.30
2022-11-05T16:57:25.436Z,11.30
2022-11-05T16:59:53.410Z,11.20
2022-11-05T17:02:20.523Z,11.30
2022-11-05T17:04:47.379Z,11.30
2022-11-05T17:07:14.254Z,11.20
2022-11-05T17:09:40.968Z,11.20
2022-11-05T17:12:07.729Z,11.20
2022-11-05T17:14:34.730Z,11.20
2022-11-05T17:17:01.695Z,11.20
2022-11-05T17:19:28.488Z,11.30
2022-11-05T17:21:56.426Z,11.30
2022-11-05T17:24:25.793Z,11.20
2022-11-05T17:26:58.424Z,11.20
2022-11-05T17:29:25.063Z,11.20
2022-11-05T17:31:52.859Z,11.20
2022-11-05T17:34:19.707Z,11.10
2022-11-05T17:36:46.327Z,11.10
2022-11-05T17:39:13.055Z,11.10
2022-11-05T17:41:43.772Z,11.00
2022-11-05T17:44:12.100Z,11.10
2022-11-05T17:46:38.816Z,11.00
2022-11-05T17:49:05.557Z,11.00
2022-11-05T17:51:34.287Z,11.00
2022-11-05T17:54:01.053Z,11.00
2022-11-05T17:56:34.425Z,11.00
2022-11-05T17:59:03.289Z,11.10
2022-11-05T18:01:36.600Z,11.10
2022-11-05T18:04:08.606Z,11.10
2022-11-05T18:06:37.655Z,11.10
2022-11-05T18:09:08.604Z,11.10
2022-11-05T18:11:36.257Z,11.10
2022-11-05T18:14:03.946Z,11.10
2022-11-05T18:16:32.500Z,11.00
2022-11-05T18:18:59.290Z,11.00
2022-11-05T18:21:26.014Z,11.00
2022-11-05T18:23:52.786Z,11.00
2022-11-05T18:26:20.199Z,11.00
2022-11-05T18:28:47.112Z,10.90
2022-11-05T18:31:20.410Z,10.90
2022-11-05T18:33:56.453Z,10.90
2022-11-05T18:36:26.086Z,10.90
2022-11-05T18:38:53.808Z,10.90
2022-11-05T18:41:21.479Z,10.80
2022-11-05T18:43:50.092Z,10.90
2022-11-05T18:46:43.182Z,10.80
2022-11-05T18:49:04.881Z,10.90
2022-11-05T18:51:31.638Z,10.80
2022-11-05T18:54:00.848Z,10.80
2022-11-05T18:56:27.768Z,10.80
2022-11-05T18:59:14.791Z,10.80
2022-11-05T19:01:42.362Z,10.80
2022-11-05T19:04:09.594Z,10.80
2022-11-05T19:06:38.643Z,10.80
2022-11-05T19:09:10.374Z,10.70
2022-11-05T19:11:39.570Z,10.80
2022-11-05T19:14:07.651Z,10.80
2022-11-05T19:16:37.139Z,10.80
2022-11-05T19:19:05.411Z,10.80
2022-11-05T19:21:32.428Z,10.80
2022-11-05T19:24:01.578Z,10.70
2022-11-05T19:26:29.380Z,10.80
2022-11-05T19:29:00.788Z,10.70
2022-11-05T19:31:28.469Z,10.70
2022-11-05T19:33:55.573Z,10.70
2022-11-05T19:36:25.707Z,10.70
2022-11-05T19:38:58.173Z,10.70
2022-11-05T19:41:29.277Z,10.70
2022-11-05T19:43:59.506Z,10.70
2022-11-05T19:46:26.413Z,10.70
2022-11-05T19:48:54.282Z,10.70
2022-11-05T19:51:24.540Z,10.70
2022-11-05T19:53:53.729Z,10.70
2022-11-05T19:56:24.911Z,10.70
2022-11-05T19:58:57.721Z,10.70
2022-11-05T20:01:28.610Z,10.70
2022-11-05T20:03:57.075Z,10.60
2022-11-05T20:06:29.745Z,10.60
2022-11-05T20:11:45.397Z,10.60
2022-11-05T20:14:12.308Z,10.60
2022-11-05T20:16:42.362Z,10.60
2022-11-05T20:19:13.117Z,10.60
2022-11-05T20:21:39.842Z,10.60
2022-11-05T20:24:08.610Z,10.50
2022-11-05T20:26:36.348Z,10.50
2022-11-05T20:29:07.648Z,10.50
2022-11-05T20:31:34.460Z,10.50
2022-11-05T20:34:01.154Z,10.50
2022-11-05T20:36:27.941Z,10.50
2022-11-05T20:38:59.321Z,10.50
2022-11-05T20:41:26.461Z,10.50
2022-11-05T20:43:54.849Z,10.50
2022-11-05T20:46:22.495Z,10.60
2022-11-05T20:48:49.868Z,10.60
2022-11-05T20:51:19.538Z,10.60
2022-11-05T20:53:46.414Z,10.60
2022-11-05T20:56:22.686Z,10.60
2022-11-05T20:58:49.986Z,10.60
2022-11-05T21:01:18.037Z,10.60
2022-11-05T21:03:46.492Z,10.60
2022-11-05T21:06:13.885Z,10.60
2022-11-05T21:08:40.866Z,10.60
2022-11-05T21:11:08.549Z,10.60
2022-11-05T21:13:35.724Z,10.50
2022-11-05T21:16:04.694Z,10.40
2022-11-05T21:18:36.487Z,10.40
2022-11-05T21:21:08.508Z,10.50
2022-11-05T21:23:35.618Z,10.50
2022-11-05T21:26:07.158Z,10.50
2022-11-05T21:28:34.615Z,10.50
2022-11-05T21:31:03.558Z,10.50
2022-11-05T21:33:33.845Z,10.50
2022-11-05T21:36:06.748Z,10.50
2022-11-05T21:38:33.416Z,10.50
2022-11-05T21:41:04.406Z,10.50
2022-11-05T21:43:32.145Z,10.50
2022-11-05T21:46:05.111Z,10.60
2022-11-05T21:48:34.937Z,10.50
2022-11-05T21:51:20.063Z,10.50
2022-11-05T21:54:06.116Z,10.50
2022-11-05T21:56:52.193Z,10.40
2022-11-05T21:59:40.680Z,10.40
2022-11-05T22:02:11.055Z,10.20
2022-11-05T22:04:40.641Z,10.20
2022-11-05T22:07:09.000Z,10.20
2022-11-05T22:09:36.126Z,10.20
2022-11-05T22:12:04.580Z,10.30
2022-11-05T22:14:34.496Z,10.20
2022-11-05T22:17:01.835Z,10.20
2022-11-05T22:19:29.160Z,10.30
2022-11-05T22:33:48.321Z,10.20
2022-11-05T22:36:16.369Z,10.10
2022-11-05T22:38:43.534Z,10.00
2022-11-05T22:52:13.707Z,10.10
2022-11-05T22:54:40.635Z,10.10
2022-11-05T22:57:07.265Z,10.00
2022-11-05T22:59:34.387Z,10.10
2022-11-05T23:02:06.574Z,10.10
2022-11-05T23:04:36.080Z,10.10
2022-11-05T23:07:27.057Z,10.00
2022-11-05T23:10:13.433Z,10.00
2022-11-05T23:12:42.714Z,10.00
2022-11-05T23:15:29.801Z,10.00
2022-11-05T23:18:15.193Z,9.90
2022-11-05T23:21:00.853Z,9.90
2022-11-05T23:23:46.146Z,9.80
2022-11-05T23:26:31.706Z,9.80
2022-11-05T23:28:58.358Z,9.70
2022-11-05T23:31:43.502Z,9.70
2022-11-05T23:34:10.254Z,9.70
2022-11-05T23:36:55.682Z,9.60
2022-11-05T23:39:22.282Z,9.70
2022-11-05T23:42:07.856Z,9.70
2022-11-05T23:44:53.211Z,9.60
2022-11-05T23:47:38.421Z,9.70
2022-11-05T23:50:05.307Z,9.60
2022-11-05T23:52:31.912Z,9.60
2022-11-05T23:54:58.681Z,9.70
2022-11-05T23:57:25.729Z,9.70
2022-11-05T23:59:52.413Z,9.70
